Portada
METAR-TAF:

METAR-TAF

Aeropuertos :

Brescia Ghedi, Italia

latitud: 45-25N, longitud: 010-17E, altitud: 102 m

Observación

El informe se hizo hace 44 minutos, a las 02:55 UTC
Viento 2 kt del sur-suroeste
Temperatura 9°C
Humedad 93%
Presión 1014 hPa
Visibilidad: 3000 m
Cielo nuboso a una altura de 3400 ft
neblina

METAR: LIPL 250255Z 21002KT 3000 BR BKN034 09/08 Q1014 RMK BKN VIS MIN 3000 WIND THR31 22002KT WIND THR13 22002KT YLO

Hora: 04:39 (03:39 UTC)

Pronóstico

El informe se hizo hace 1 hora y 39 minutos, a las 02:00 UTC
Pronóstico válido del 25 a las 03 UTC al 25 a las 12 UTC
Viento 3 kt del norte-noreste
Visibilidad: 5000 m
Nubes dispersas a una altura de 2500 ft
neblina
Temporalmente
del 25 a las 03 UTC al 25 a las 06 UTC
Visibilidad: 1100 m
Nubes dispersas a una altura de 1500 ft
neblina

TAF: LIPL 250200Z 2503/2512 03003KT 5000 BR SCT025 TEMPO 2503/2506 1100 BR SCT015

Observaciones y pronósticos meteorológicos de más de 4000 aeropuertos (mensajes METAR y TAF).

Los puntos amarillos y rojos representan las estaciones disponibles.

Ponga el ratón en el punto deseado para ver el nombre de la estación.

Haga clic para ver las observaciones y los pronósticos meteorológicos.

Para cambiar el mapa : haga clic en los botones verdes con una cruz de color negro para hacer un zoom, en el botón verde con un guión para alejar o en las flechas verdes para mapas adyacentes.


METAR-TAF: